La Grande, OR

2:27 PM PST on February 07, 2016 (GMT -0800)
La Grande-Union County

Weather History for KLGD - August, 2013

Change the Weather History Date:

Friday, August 9, 2013

  Actual Average (KBKE) Record (KBKE)
Temperature  
Mean Temperature 78 °F 66 °F  
Max Temperature 93 °F 86 °F 99 °F (2000)
Min Temperature 62 °F 46 °F 37 °F (2002)
Degree Days  
Heating Degree Days 0 2  
Month to date heating degree days 13  
Since 1 June heating degree days 309  
Since 1 July heating degree days 83  
Cooling Degree Days 12 3  
Month to date cooling degree days 27  
Year to date cooling degree days 120  
Since 1 June cooling degree days 118  
Growing Degree Days 28 (Base 50)    
Moisture  
Dew Point 42 °F    
Average Humidity 28    
Maximum Humidity 40    
Minimum Humidity 19    
Precipitation  
Precipitation 0.00 in 0.02 in 0.38 in (1968)
Month to date precipitation 0.18  
Year to date precipitation 6.54  
Sea Level Pressure  
Sea Level Pressure 29.89 in    
Wind  
Wind Speed 10 mph (NNW)    
Max Wind Speed 18 mph    
Max Gust Speed 23 mph    
Visibility 10 miles    
Events      
T = Trace of Precipitation, MM = Missing Value Source: NWS Daily Summary

Daily Weather History Graph

Daily Weather History Graph

Search for Another Location

Airport or City:

Trip Planner

Search our weather history database for the weather conditions in past years. The results will help you decide how hot, cold, wet, or windy it might be!

Date:

Astronomy

Aug. 09, 2013 Rise Set
Actual Time 5:46 AM PDT 8:07 PM PDT
Civil Twilight 5:13 AM PDT 8:40 PM PDT
Nautical Twilight 4:32 AM PDT 9:21 PM PDT
Astronomical Twilight 3:46 AM PDT 10:07 PM PDT
Moon 8:48 AM PDT (8/9) 9:07 PM PDT (8/9)
Length of Visible Light 15h 27m
Length of Day
14h 21m
Waxing Crescent, 8% of the Moon is Illuminated
Aug 9
Waxing Crescent
Aug 14
First Quarter
Aug 20
Full
Aug 28
Last Quarter
Sep 5
New

Hourly Weather History & Observations

Time (PDT) Temp. Dew Point Humidity Pressure Visibility Wind Dir Wind Speed Gust Speed Precip Events Conditions
12:15 AM 73.4 °F 39.2 °F 29% 29.93 in 10.0 mi North 4.6 mph - N/A   Clear
12:35 AM 73.4 °F 39.2 °F 29% 29.91 in 10.0 mi NNW 11.5 mph 17.3 mph N/A   Clear
12:55 AM 77.0 °F 39.2 °F 26% 29.90 in 10.0 mi NW 18.4 mph - N/A   Partly Cloudy
1:15 AM 73.4 °F 39.2 °F 29% 29.91 in 10.0 mi NW 15.0 mph - N/A   Clear
1:35 AM 73.4 °F 39.2 °F 29% 29.92 in 10.0 mi NW 18.4 mph 21.9 mph N/A   Clear
1:55 AM 73.4 °F 39.2 °F 29% 29.92 in 10.0 mi WNW 16.1 mph 20.7 mph N/A   Clear
2:15 AM 75.2 °F 39.2 °F 27% 29.92 in 10.0 mi WNW 13.8 mph - N/A   Clear
2:35 AM 73.4 °F 39.2 °F 29% 29.92 in 10.0 mi NNW 12.7 mph - N/A   Clear
2:55 AM 73.4 °F 39.2 °F 29% 29.92 in 10.0 mi NNW 12.7 mph - N/A   Clear
3:15 AM 71.6 °F 39.2 °F 31% 29.93 in 10.0 mi NNW 15.0 mph - N/A   Clear
3:35 AM 69.8 °F 39.2 °F 33% 29.94 in 10.0 mi North 8.1 mph - N/A   Clear
3:55 AM 66.2 °F 37.4 °F 35% 29.93 in 10.0 mi North 9.2 mph - N/A   Partly Cloudy
4:15 AM 66.2 °F 37.4 °F 35% 29.93 in 10.0 mi ENE 10.4 mph - N/A   Scattered Clouds
4:35 AM 64.4 °F 37.4 °F 37% 29.92 in 10.0 mi NW 3.5 mph - N/A   Clear
4:55 AM 64.4 °F 37.4 °F 37% 29.92 in 10.0 mi Calm Calm - N/A   Clear
5:15 AM 62.6 °F 37.4 °F 39% 29.92 in 10.0 mi Calm Calm - N/A   Clear
5:35 AM 68.0 °F 39.2 °F 35% 29.92 in 10.0 mi NNW 10.4 mph - N/A   Clear
5:55 AM 68.0 °F 39.2 °F 35% 29.92 in 10.0 mi NW 6.9 mph - N/A   Clear
6:15 AM 68.0 °F 41.0 °F 37% 29.92 in 10.0 mi NNW 6.9 mph - N/A   Clear
6:35 AM 66.2 °F 39.2 °F 37% 29.93 in 10.0 mi Calm Calm - N/A   Clear
6:55 AM 64.4 °F 39.2 °F 40% 29.93 in 10.0 mi NNE 4.6 mph - N/A   Clear
7:15 AM 64.4 °F 39.2 °F 40% 29.93 in 10.0 mi ESE 4.6 mph - N/A   Clear
7:35 AM 68.0 °F 41.0 °F 37% 29.94 in 10.0 mi NNW 6.9 mph - N/A   Clear
7:55 AM 68.0 °F 41.0 °F 37% 29.94 in 10.0 mi NW 3.5 mph - N/A   Clear
8:15 AM 69.8 °F 42.8 °F 38% 29.94 in 10.0 mi Calm Calm - N/A   Clear
8:35 AM 75.2 °F 44.6 °F 34% 29.94 in 10.0 mi NW 12.7 mph - N/A   Clear
8:55 AM 77.0 °F 44.6 °F 32% 29.94 in 10.0 mi NW 12.7 mph - N/A   Clear
9:15 AM 78.8 °F 42.8 °F 28% 29.94 in 10.0 mi WNW 16.1 mph 20.7 mph N/A   Clear
9:35 AM 78.8 °F 44.6 °F 30% 29.94 in 10.0 mi NW 15.0 mph 20.7 mph N/A   Clear
9:55 AM 80.6 °F 44.6 °F 28% 29.94 in 10.0 mi WNW 16.1 mph - N/A   Clear
10:15 AM 80.6 °F 44.6 °F 28% 29.93 in 10.0 mi WNW 10.4 mph - N/A   Clear
10:35 AM 80.6 °F 44.6 °F 28% 29.92 in 10.0 mi North 6.9 mph - N/A   Clear
10:55 AM 82.4 °F 42.8 °F 25% 29.92 in 10.0 mi North 8.1 mph - N/A   Clear
11:15 AM 82.4 °F 42.8 °F 25% 29.91 in 10.0 mi NW 9.2 mph - N/A   Clear
11:35 AM 84.2 °F 44.6 °F 25% 29.91 in 10.0 mi NNW 11.5 mph - N/A   Clear
11:55 AM 86.0 °F 44.6 °F 23% 29.90 in 10.0 mi North 6.9 mph - N/A   Clear
12:15 PM 87.8 °F 44.6 °F 22% 29.89 in 10.0 mi North 12.7 mph 16.1 mph N/A   Clear
12:35 PM 87.8 °F 42.8 °F 21% 29.88 in 10.0 mi NNE 11.5 mph 16.1 mph N/A   Clear
12:55 PM 89.6 °F 44.6 °F 21% 29.87 in 10.0 mi North 9.2 mph - N/A   Clear
1:15 PM 89.6 °F 44.6 °F 21% 29.87 in 10.0 mi North 11.5 mph 16.1 mph N/A   Clear
1:35 PM 89.6 °F 44.6 °F 21% 29.86 in 10.0 mi NNE 11.5 mph - N/A   Clear
1:55 PM 91.4 °F 44.6 °F 20% 29.85 in 10.0 mi NNW 12.7 mph 16.1 mph N/A   Clear
2:15 PM 91.4 °F 44.6 °F 20% 29.84 in 10.0 mi NNE 9.2 mph - N/A   Clear
2:35 PM 91.4 °F 44.6 °F 20% 29.83 in 10.0 mi NW 5.8 mph - N/A   Clear
2:55 PM 91.4 °F 44.6 °F 20% 29.83 in 10.0 mi NNW 6.9 mph - N/A   Clear
3:15 PM 91.4 °F 44.6 °F 20% 29.82 in 10.0 mi NE 9.2 mph - N/A   Clear
3:35 PM 93.2 °F 44.6 °F 19% 29.82 in 10.0 mi Calm Calm - N/A   Clear
3:55 PM 93.2 °F 44.6 °F 19% 29.80 in 10.0 mi SW 4.6 mph - N/A   Clear
4:15 PM 93.2 °F 44.6 °F 19% 29.80 in 10.0 mi ESE 5.8 mph - N/A   Clear
4:35 PM 93.2 °F 44.6 °F 19% 29.79 in 10.0 mi NNW 8.1 mph - N/A   Clear
4:55 PM 93.2 °F 44.6 °F 19% 29.78 in 10.0 mi NNE 13.8 mph - N/A   Clear
5:15 PM 91.4 °F 44.6 °F 20% 29.78 in 10.0 mi NNE 12.7 mph - N/A   Clear
5:35 PM 89.6 °F 42.8 °F 20% 29.80 in 10.0 mi NNW 6.9 mph - N/A   Scattered Clouds
5:55 PM 87.8 °F 44.6 °F 22% 29.82 in 10.0 mi Calm Calm - N/A   Mostly Cloudy
6:15 PM 84.2 °F 44.6 °F 25% 29.82 in 10.0 mi WNW 10.4 mph - N/A   Overcast
6:35 PM 82.4 °F 44.6 °F 26% 29.82 in 10.0 mi WNW 13.8 mph - N/A   Mostly Cloudy
6:55 PM 82.4 °F 44.6 °F 26% 29.82 in 10.0 mi WNW 10.4 mph - N/A   Mostly Cloudy
7:15 PM 80.6 °F 44.6 °F 28% 29.83 in 10.0 mi NW 11.5 mph - N/A   Partly Cloudy
7:35 PM 80.6 °F 44.6 °F 28% 29.83 in 10.0 mi NW 12.7 mph - N/A   Clear
7:55 PM 78.8 °F 44.6 °F 30% 29.84 in 10.0 mi NNW 12.7 mph - N/A   Clear
8:15 PM 78.8 °F 44.6 °F 30% 29.85 in 10.0 mi NW 15.0 mph - N/A   Clear
8:35 PM 78.8 °F 42.8 °F 28% 29.85 in 10.0 mi NW 12.7 mph - N/A   Clear
8:55 PM 77.0 °F 42.8 °F 29% 29.86 in 10.0 mi NW 10.4 mph - N/A   Clear
9:15 PM 78.8 °F 42.8 °F 28% 29.87 in 10.0 mi NW 13.8 mph - N/A   Clear
9:35 PM 78.8 °F 42.8 °F 28% 29.89 in 10.0 mi WNW 11.5 mph - N/A   Clear
9:55 PM 80.6 °F 42.8 °F 26% 29.88 in 10.0 mi NW 16.1 mph - N/A   Scattered Clouds
10:15 PM 75.2 °F 42.8 °F 31% 29.87 in 10.0 mi NNW 11.5 mph - N/A   Scattered Clouds
10:35 PM 75.2 °F 42.8 °F 31% 29.88 in 10.0 mi WNW 13.8 mph 19.6 mph N/A   Clear
10:55 PM 75.2 °F 42.8 °F 31% 29.88 in 10.0 mi WNW 12.7 mph 19.6 mph N/A   Clear
11:15 PM 75.2 °F 42.8 °F 31% 29.89 in 10.0 mi WNW 18.4 mph 23.0 mph N/A   Clear
11:35 PM 75.2 °F 42.8 °F 31% 29.90 in 10.0 mi WNW 15.0 mph - N/A   Clear
11:55 PM 73.4 °F 42.8 °F 33% 29.91 in 10.0 mi NW 16.1 mph - N/A   Clear